This is the latest recevied weather packets stored in our database for station/object W4SMH. If no packets are shown the sender has not sent any weather packets the latest 10 day(s).
| Time | Temp. | Humidity | Pressure | Rain* | Wind** | Luminosity | Snow |
|---|---|---|---|---|---|---|---|
| 1777620982 | 3.33° C | 90% | 1013.4 hPa | 0 mm | - | 0 W/m² | - |
| 1777620754 | 3.33° C | 90% | 1013.5 hPa | 0 mm | - | 0 W/m² | - |
| 1777620634 | 3.33° C | 90% | 1013.6 hPa | 0 mm | - | 0 W/m² | - |
| 1777620588 | 3.33° C | 90% | 1013.4 hPa | 0 mm | - | 0 W/m² | - |
| 1777620102 | 3.89° C | 90% | 1013.4 hPa | 0 mm | - | 0 W/m² | - |
| 1777619420 | 10° C | 81% | 1011.5 hPa | 0.25 mm | - | 0 W/m² | - |
| 1777619370 | 3.89° C | 90% | 1013.3 hPa | 0 mm | - | 0 W/m² | - |
| 1777619307 | 3.89° C | 90% | 1013.4 hPa | 0.25 mm | - | 0 W/m² | - |
| 1777618975 | 3.89° C | 90% | 1013.3 hPa | 0.25 mm | - | 0 W/m² | - |
| 1777618760 | 10.56° C | 78% | 1011.6 hPa | 0 mm | - | 0 W/m² | - |
| 1777618702 | 11.11° C | 74% | 1011.5 hPa | 0 mm | - | 0 W/m² | - |
| 1777618254 | 3.89° C | 90% | 1013.3 hPa | 0.25 mm | - | 0 W/m² | - |
| 1777618006 | 3.89° C | 90% | 1013.3 hPa | 0.25 mm | - | 0 W/m² | - |
| 1777617974 | 3.89° C | 90% | 1013.4 hPa | 0.25 mm | - | 0 W/m² | - |
| 1777617635 | 11.11° C | 73% | 1011.3 hPa | 0 mm | - | 0 W/m² | - |
| 1777617615 | 11.11° C | 73% | 1011.4 hPa | 0 mm | - | 0 W/m² | - |
| 1777617194 | 3.89° C | 90% | 1013.6 hPa | 0.25 mm | - | 0 W/m² | - |
| 1777616934 | 3.89° C | 90% | 1013.5 hPa | 0.25 mm | - | 0 W/m² | - |
| 1777616697 | 3.89° C | 89% | 1013.7 hPa | 0.25 mm | - | 0 W/m² | - |
| 1777615919 | 11.67° C | 69% | 1011.4 hPa | 0 mm | - | 0 W/m² | - |
| 1777615840 | 3.89° C | 89% | 1013.8 hPa | 0.25 mm | - | 0 W/m² | - |
| 1777615744 | 3.89° C | 89% | 1013.8 hPa | 0 mm | - | 0 W/m² | - |
| 1777615488 | 3.89° C | 89% | 1013.8 hPa | 0 mm | - | 0 W/m² | - |
| 1777615462 | 3.89° C | 89% | 1013.7 hPa | 0 mm | - | 0 W/m² | - |
| 1777615435 | 3.89° C | 89% | 1013.7 hPa | 0 mm | - | 0 W/m² | - |
* Rain latest hour (hover to see other rain measurements)
** Current wind speed in m/s (hover to see current wind gust speed)